首页
METAR-TAF:

METAR-TAF

机场 :

Pangnirtung, 努那武特, 加拿大

纬度: 66-09N, 经度: 065-43W, 海拔: 23米

当前天气观测

该预报发布于54分钟前的20:00 UTC
静风
温度 -18°C
湿度 84%
气压 1004 hPa
能見度: 24.1公里
少量云层高于2400英尺

METAR: CYXP 132000Z 00000KT 15SM FEW024 M18/M20 A2966 RMK SC1 SLP049

时间: 15:54 (20:54 UTC)

预报

该预报发布于2小时和16分钟前的18:38 UTC
预报有效从13日的 19点(UTC)到 13日的 23点(UTC)
风速3节,风向多变
能見度: 10公里
少量云层高于2500英尺

TAF: CYXP 131838Z 1319/1323 VRB03KT P6SM FEW025 RMK NXT FCST WILL BE ISSUED AT 141345Z

超过4000个机场的气象观测和天气预报(METAR&TAF报告)。

可查询的气象台以黄色和红色小点在地图上表示。

将鼠标移到小点上方,可查看气象台名称。

然后点击查看天气观测和预报。

如需切换地图:点击带黑十字的绿色按钮放大地图;点击带横线的绿色按钮缩小地图;或者点击绿色箭头查看邻近地区的地图。


METAR-TAF: